Hlavní strana
METAR-TAF:

METAR-TAF

Letiště :

Evenes, Norsko

zeměpisná šířka: 68-31N, zeměpisná délka: 016-41E, výška: 26 m

Aktuální stav počasí

Zpráva byla vytvořena před 3 hodinami a 49 minutami, v 18:50 UTC
Jižní vítr 7 kt
Teplota 4°C
Vlhkost vzduchu 93%
Tlak 992 hPa
Viditelnost 10 km a více
Oblačno až skoro zataženo ve výšce 700 ft
slabý déšť

METAR: ENEV 251850Z 19007KT 9999 -RA BKN007 04/03 Q0992 RMK WIND 1400FT 24010KT

Čas: 23:39 (22:39 UTC)

Předpověď počasí

Zpráva byla vytvořena před 8 hodinami a 39 minutami, v 14:00 UTC
Předpověď platná od 25 v 15 UTC do 25 v 19 UTC
Jihozápadní vítr 9 kt
Viditelnost 10 km a více
Skoro jasno ve výšce 500 ft
Oblačno až skoro zataženo ve výšce 2000 ft
slabé dešťové přeháňky
Dočasný
od 25 v 15 UTC do 25 v 19 UTC
Viditelnost: 4000 m
Oblačno až skoro zataženo ve výšce 400 ft
dešťové přeháňky

TAF: ENEV 251400Z 2515/2519 22009KT 9999 -SHRA FEW005 BKN020 TEMPO 2515/2519 4000 SHRA BKN004

Stav a předpovědi počasí z více než 4 000 letišť (zprávy METAR a TAF).

Červené a žluté tečky na mapě představují dostupné meteorologické stanice.

Když kurzor umístíte na tečku, zobrazí se název stanice.

Pak kliknutím zobrazíte stav a předpověď počasí.

Chcete-li změnit mapu, kliknutím na zelené tlačítko se znaménkem +mapu přiblížíte, kliknutím na zelené tlačítko se znaménkem – mapu oddálíte a kliknutím na zelené šipky přejdete na sousední mapy.


METAR-TAF: